Time;durP1;ratioP1;P1;durP2;ratioP2;P2;SDS_P1;SDS_P2;PMS_P1;PMS_P2;Temp;Humidity;BMP_temperature;BMP_pressure;BME280_temperature;BME280_humidity;BME280_pressure;Samples;Min_cycle;Max_cycle;Signal;HPM_P1;HPM_P2
2022/07/27 00:01:08;;;;;;;14.85;6.38;;;;;;;20.70;63.49;98514.13;4990467;28;20050;-75
2022/07/27 00:03:35;;;;;;;11.43;8.30;;;;;;;20.71;63.13;98510.38;4975532;28;20106;-75
2022/07/27 00:06:00;;;;;;;20.27;8.45;;;;;;;20.80;63.24;98515.41;4973843;28;20098;-76
2022/07/27 00:08:26;;;;;;;11.65;8.60;;;;;;;20.84;63.02;98519.38;4974452;28;20483;-76
2022/07/27 00:10:52;;;;;;;13.73;8.27;;;;;;;20.77;63.19;98504.09;4975222;28;20386;-75
2022/07/27 00:13:18;;;;;;;9.40;6.70;;;;;;;20.89;63.10;98515.19;4974964;28;20046;-75
2022/07/27 00:15:44;;;;;;;13.15;7.50;;;;;;;20.92;62.99;98517.47;4975286;28;20418;-75
2022/07/27 00:18:10;;;;;;;12.98;7.60;;;;;;;20.91;62.81;98527.53;4974262;28;20046;-75
2022/07/27 00:20:38;;;;;;;12.27;7.82;;;;;;;20.88;63.08;98536.09;4973550;28;20121;-76
2022/07/27 00:23:04;;;;;;;18.25;8.20;;;;;;;20.83;63.30;98522.28;4957715;28;20592;-76
2022/07/27 00:25:30;;;;;;;18.92;10.43;;;;;;;20.74;63.34;98543.38;4957645;28;20047;-75
2022/07/27 00:27:56;;;;;;;17.05;11.63;;;;;;;20.71;63.63;98537.53;4974818;28;20059;-76
2022/07/27 00:30:23;;;;;;;19.83;15.05;;;;;;;20.69;63.67;98539.63;4973754;28;20053;-76
2022/07/27 00:32:49;;;;;;;23.25;13.90;;;;;;;20.70;63.70;98538.56;4973595;28;20038;-76
2022/07/27 00:35:15;;;;;;;20.10;13.13;;;;;;;20.80;63.62;98555.31;4989743;28;20043;-76
2022/07/27 00:37:41;;;;;;;13.93;11.98;;;;;;;20.81;63.68;98555.09;4973422;28;20104;-76
2022/07/27 00:40:08;;;;;;;21.17;10.60;;;;;;;20.84;63.30;98556.56;4957387;28;20039;-76
2022/07/27 00:42:34;;;;;;;25.05;10.00;;;;;;;20.84;63.68;98559.28;4957279;28;20047;-76
2022/07/27 00:45:01;;;;;;;15.57;10.45;;;;;;;20.74;63.79;98564.28;4989687;28;20041;-76
2022/07/27 00:47:26;;;;;;;19.77;10.40;;;;;;;20.67;63.76;98558.00;4957025;28;20141;-76
2022/07/27 00:49:53;;;;;;;18.35;9.07;;;;;;;20.66;63.73;98567.19;4956862;28;20133;-76
2022/07/27 00:52:21;;;;;;;13.85;7.72;;;;;;;20.72;63.93;98571.78;4989800;28;20054;-76
2022/07/27 00:54:47;;;;;;;17.67;7.95;;;;;;;20.73;63.44;98562.59;4989300;28;20046;-76
2022/07/27 00:57:14;;;;;;;16.08;7.35;;;;;;;20.79;63.33;98583.50;4957440;28;20121;-76
2022/07/27 00:59:41;;;;;;;15.50;8.05;;;;;;;20.79;62.93;98586.19;4956892;28;20043;-76
2022/07/27 01:02:08;;;;;;;9.90;6.70;;;;;;;20.73;63.15;98574.31;4989375;28;20521;-75
2022/07/27 01:04:34;;;;;;;14.25;7.28;;;;;;;20.82;63.24;98580.38;4973101;28;20105;-76
2022/07/27 01:07:02;;;;;;;16.33;6.95;;;;;;;20.93;63.01;98585.19;4972957;28;20494;-76
2022/07/27 01:12:16;;;;;;;12.88;6.57;;;;;;;21.00;62.25;98586.03;4974268;28;20282;-76
2022/07/27 01:14:42;;;;;;;17.00;5.75;;;;;;;21.06;61.92;98590.63;4973040;28;20085;-76
2022/07/27 01:17:08;;;;;;;17.60;5.78;;;;;;;21.10;62.14;98597.31;4973071;28;20043;-76
2022/07/27 01:19:34;;;;;;;15.95;5.22;;;;;;;21.12;61.67;98607.16;4973042;28;20047;-76
2022/07/27 01:22:05;;;;;;;7.80;4.28;;;;;;;21.12;61.55;98599.00;4974173;28;20049;-76
2022/07/27 01:24:32;;;;;;;11.38;5.20;;;;;;;21.15;61.39;98601.28;4957019;28;20550;-76
2022/07/27 01:27:03;;;;;;;10.48;5.05;;;;;;;21.14;61.54;98607.75;4972718;28;20069;-76
2022/07/27 01:29:29;;;;;;;17.27;5.32;;;;;;;21.13;61.43;98611.53;4956621;28;20086;-76
2022/07/27 01:31:55;;;;;;;10.88;6.13;;;;;;;21.14;61.52;98618.63;4989056;28;20051;-75
2022/07/27 01:34:21;;;;;;;11.38;5.07;;;;;;;21.14;61.51;98619.50;4972812;28;20050;-75
2022/07/27 01:36:48;;;;;;;8.75;4.68;;;;;;;21.09;61.26;98617.38;4988940;28;20054;-76
2022/07/27 01:39:15;;;;;;;9.32;4.28;;;;;;;21.09;61.36;98611.09;4972570;28;20039;-77
2022/07/27 01:41:42;;;;;;;4.78;4.18;;;;;;;21.07;61.54;98608.59;4972867;28;20457;-77
2022/07/27 01:44:08;;;;;;;6.07;3.97;;;;;;;21.03;61.67;98607.34;4988850;28;20054;-77
2022/07/27 01:46:34;;;;;;;11.68;4.43;;;;;;;21.03;61.55;98612.78;4973711;28;20046;-76
2022/07/27 01:49:00;;;;;;;5.75;4.25;;;;;;;21.06;61.55;98612.38;4956838;28;20497;-76
2022/07/27 01:51:25;;;;;;;5.25;4.15;;;;;;;21.23;61.34;98617.38;4973917;28;20054;-76
2022/07/27 01:53:51;;;;;;;6.70;3.80;;;;;;;21.30;60.88;98618.22;4972509;28;20065;-76
2022/07/27 01:56:17;;;;;;;10.10;3.90;;;;;;;21.38;60.71;98626.19;4988716;28;20367;-76
2022/07/27 01:58:43;;;;;;;10.07;3.90;;;;;;;21.47;60.52;98619.50;4972339;28;20065;-78
2022/07/27 02:01:09;;;;;;;10.05;3.60;;;;;;;21.44;60.15;98606.34;4972337;28;20050;-77
2022/07/27 02:03:35;;;;;;;4.38;3.72;;;;;;;21.54;59.52;98623.03;4972592;28;20047;-77
2022/07/27 02:06:03;;;;;;;4.63;3.38;;;;;;;21.52;59.34;98622.44;4972388;28;20042;-76
2022/07/27 02:08:29;;;;;;;7.15;3.63;;;;;;;21.64;58.74;98624.50;4972410;28;20050;-76
2022/07/27 02:13:46;;;;;;;11.98;3.53;;;;;;;21.25;59.51;98637.03;4972425;28;20121;-77
2022/07/27 02:16:16;;;;;;;8.25;4.20;;;;;;;21.34;59.73;98643.97;4956328;28;20039;-77
2022/07/27 02:18:42;;;;;;;9.88;4.07;;;;;;;21.24;59.79;98635.38;4972807;28;20043;-76
2022/07/27 02:21:09;;;;;;;11.20;3.83;;;;;;;21.33;59.95;98650.47;4943953;28;20201;-76
2022/07/27 02:23:36;;;;;;;7.53;3.67;;;;;;;21.37;60.21;98650.88;4977107;28;20531;-76
2022/07/27 02:26:04;;;;;;;7.43;4.07;;;;;;;21.45;59.91;98643.34;4975929;28;20077;-77
2022/07/27 02:28:30;;;;;;;12.55;4.72;;;;;;;21.57;59.15;98652.53;4976719;28;20082;-77
2022/07/27 02:30:56;;;;;;;11.98;4.35;;;;;;;21.56;59.01;98650.03;4959608;28;20046;-76
2022/07/27 02:33:22;;;;;;;7.65;4.85;;;;;;;21.62;58.99;98656.50;4976942;28;20050;-77
2022/07/27 02:35:48;;;;;;;10.40;4.60;;;;;;;21.59;58.84;98663.22;4959495;28;20042;-77
2022/07/27 02:38:14;;;;;;;10.90;4.68;;;;;;;21.59;58.68;98655.06;4958606;28;20062;-78
2022/07/27 02:40:40;;;;;;;12.82;4.47;;;;;;;21.69;58.39;98660.88;4959494;28;20144;-77
2022/07/27 02:43:06;;;;;;;15.50;7.13;;;;;;;21.76;58.25;98658.16;4975897;28;20042;-77
2022/07/27 02:45:31;;;;;;;11.00;4.18;;;;;;;21.84;58.32;98663.38;4976605;28;20070;-77
2022/07/27 02:47:57;;;;;;;12.18;3.90;;;;;;;21.89;58.13;98660.88;4959320;28;20049;-77
2022/07/27 02:50:23;;;;;;;15.80;4.85;;;;;;;22.05;57.64;98670.47;4975427;28;20053;-77
2022/07/27 02:52:49;;;;;;;7.57;4.38;;;;;;;22.12;57.20;98670.47;4991744;28;20043;-77
2022/07/27 02:55:15;;;;;;;13.90;4.88;;;;;;;22.22;56.97;98676.31;4976268;28;20046;-77
2022/07/27 02:57:40;;;;;;;9.73;5.15;;;;;;;22.28;57.20;98664.56;4959190;28;20053;-78
2022/07/27 03:00:10;;;;;;;15.55;5.70;;;;;;;22.34;57.05;98674.63;4959141;28;20038;-77
2022/07/27 03:02:36;;;;;;;17.17;6.03;;;;;;;22.36;57.19;98656.16;4974866;28;20043;-76
2022/07/27 03:05:07;;;;;;;15.05;6.40;;;;;;;22.53;57.01;98679.16;4991100;28;20506;-78
2022/07/27 03:07:33;;;;;;;17.05;7.28;;;;;;;22.74;56.82;98675.25;4958936;28;20050;-76
2022/07/27 03:09:59;;;;;;;20.80;6.30;;;;;;;22.90;56.19;98679.34;4974863;28;20556;-77
2022/07/27 03:12:25;;;;;;;17.38;5.70;;;;;;;22.85;56.38;98676.47;4976410;28;20058;-77
2022/07/27 03:14:51;;;;;;;14.63;5.43;;;;;;;23.03;55.65;98683.94;4991204;28;20101;-78
2022/07/27 03:17:17;;;;;;;13.30;5.68;;;;;;;23.05;55.55;98684.53;4958811;28;20101;-76
2022/07/27 03:19:43;;;;;;;13.20;6.18;;;;;;;22.97;55.79;98688.38;4974483;28;20070;-77
2022/07/27 03:22:09;;;;;;;20.15;6.53;;;;;;;23.02;55.96;98688.56;4958733;28;20050;-78
2022/07/27 03:24:34;;;;;;;20.52;7.57;;;;;;;23.17;55.82;98684.69;4974373;28;20109;-75
2022/07/27 03:27:00;;;;;;;19.55;8.40;;;;;;;23.34;55.41;98688.56;4975869;28;20046;-77
2022/07/27 03:29:26;;;;;;;20.30;8.10;;;;;;;23.46;54.80;98688.66;4966984;28;20109;-78
2022/07/27 03:31:52;;;;;;;25.75;9.13;;;;;;;23.58;54.83;98697.78;4973318;28;20055;-77
2022/07/27 03:34:18;;;;;;;23.17;8.90;;;;;;;23.69;55.03;98688.91;4958218;28;20039;-77
2022/07/27 03:36:45;;;;;;;17.30;9.10;;;;;;;23.92;54.75;98693.78;4990810;28;20508;-77
2022/07/27 03:39:12;;;;;;;13.63;9.23;;;;;;;24.23;54.07;98689.25;4974672;28;20170;-79
2022/07/27 03:41:38;;;;;;;17.98;8.52;;;;;;;24.29;53.63;98707.44;4974506;28;20053;-77
2022/07/27 03:44:04;;;;;;;12.90;8.52;;;;;;;24.50;53.36;98705.38;4973939;28;20486;-77
2022/07/27 03:46:30;;;;;;;18.73;8.40;;;;;;;24.71;53.10;98707.59;4958117;28;20078;-78
2022/07/27 03:48:56;;;;;;;18.30;7.20;;;;;;;24.89;52.86;98710.31;4990596;28;20074;-77
2022/07/27 03:51:23;;;;;;;12.45;6.47;;;;;;;25.04;51.35;98714.53;4975495;28;20137;-78
2022/07/27 03:53:49;;;;;;;9.52;6.32;;;;;;;25.11;51.25;98712.59;4974419;28;20113;-77
2022/07/27 03:56:15;;;;;;;13.98;6.13;;;;;;;25.17;51.45;98711.66;4958222;28;20046;-77
2022/07/27 03:58:41;;;;;;;15.30;7.07;;;;;;;25.16;50.52;98705.38;4974104;28;20132;-78
2022/07/27 04:01:06;;;;;;;14.40;7.10;;;;;;;25.17;50.96;98722.59;4973303;28;20046;-77
2022/07/27 04:03:32;;;;;;;14.98;6.55;;;;;;;25.34;51.03;98723.59;4990449;28;20081;-78
2022/07/27 04:05:59;;;;;;;14.10;7.03;;;;;;;25.09;51.29;98720.19;4958083;28;20049;-78
2022/07/27 04:08:25;;;;;;;17.50;7.38;;;;;;;24.65;52.22;98728.50;4974381;28;20069;-87
2022/07/27 04:10:51;;;;;;;10.68;6.97;;;;;;;24.64;52.58;98729.56;4957987;28;20102;-84
2022/07/27 04:13:20;;;;;;;13.15;7.30;;;;;;;24.77;52.76;98723.09;4957561;28;20501;-79
2022/07/27 04:15:47;;;;;;;14.10;6.85;;;;;;;24.96;52.40;98721.16;4973675;28;20038;-78
2022/07/27 04:18:13;;;;;;;11.32;6.68;;;;;;;25.07;51.96;98730.50;4973676;28;20050;-78
2022/07/27 04:20:39;;;;;;;16.42;7.13;;;;;;;25.11;51.79;98731.72;4973482;28;20042;-77
2022/07/27 04:23:05;;;;;;;11.90;6.07;;;;;;;25.16;51.58;98727.25;4975102;28;20050;-77
2022/07/27 04:25:30;;;;;;;18.35;6.72;;;;;;;25.40;51.87;98730.88;4974716;28;20039;-77
2022/07/27 04:27:56;;;;;;;8.77;5.22;;;;;;;25.47;51.21;98733.53;4973470;28;20062;-78
2022/07/27 04:30:22;;;;;;;11.77;6.03;;;;;;;25.34;51.25;98729.06;4973300;28;20105;-78
2022/07/27 04:32:49;;;;;;;10.75;5.65;;;;;;;25.42;51.44;98728.72;4973360;28;20054;-78
2022/07/27 04:35:14;;;;;;;12.45;5.10;;;;;;;25.50;51.20;98734.94;4957206;28;20047;-79
2022/07/27 04:37:40;;;;;;;9.23;4.85;;;;;;;25.26;51.20;98721.19;4957214;28;20451;-79
2022/07/27 04:40:07;;;;;;;8.15;4.38;;;;;;;25.19;51.91;98734.13;4973669;28;20184;-80
2022/07/27 04:42:33;;;;;;;10.80;3.83;;;;;;;25.34;51.67;98718.13;4956812;28;20047;-77
2022/07/27 04:44:59;;;;;;;15.07;4.65;;;;;;;25.84;51.20;98726.00;4957133;28;20038;-79
2022/07/27 04:47:25;;;;;;;8.65;4.18;;;;;;;26.03;50.30;98724.00;4973040;28;20049;-77
2022/07/27 04:49:51;;;;;;;6.78;4.10;;;;;;;26.22;50.13;98727.44;4974327;28;20397;-76
2022/07/27 04:52:17;;;;;;;11.55;4.30;;;;;;;26.45;49.73;98725.75;4973133;28;20058;-78
2022/07/27 04:54:43;;;;;;;13.32;4.18;;;;;;;26.51;49.34;98733.03;4972855;28;20046;-77
2022/07/27 04:57:09;;;;;;;9.77;3.67;;;;;;;26.74;48.72;98727.50;4969274;28;20418;-77
2022/07/27 04:59:34;;;;;;;7.75;3.95;;;;;;;26.91;48.27;98730.31;4976466;28;20039;-77
2022/07/27 05:02:00;;;;;;;11.10;4.10;;;;;;;26.85;47.58;98723.91;4940812;28;20039;-78
2022/07/27 05:04:26;;;;;;;12.20;4.45;;;;;;;26.82;47.98;98707.09;4956819;28;20406;-78
2022/07/27 05:06:52;;;;;;;7.63;4.03;;;;;;;27.03;48.14;98722.03;4972972;28;20109;-80
2022/07/27 05:09:18;;;;;;;10.48;3.90;;;;;;;27.09;47.58;98718.31;4941166;28;20414;-78
2022/07/27 05:11:45;;;;;;;9.93;4.32;;;;;;;27.14;47.61;98715.69;4972217;28;20085;-77
2022/07/27 05:14:10;;;;;;;6.43;3.88;;;;;;;27.27;47.46;98714.56;4972423;28;20042;-78
2022/07/27 05:16:39;;;;;;;8.30;4.63;;;;;;;27.49;47.25;98706.44;4955185;28;20057;-78
2022/07/27 05:19:05;;;;;;;5.55;4.20;;;;;;;27.72;46.72;98708.19;4972260;28;20082;-78
2022/07/27 05:21:30;;;;;;;8.95;4.60;;;;;;;27.46;47.00;98712.44;4972589;28;20053;-79
2022/07/27 05:23:56;;;;;;;6.53;3.70;;;;;;;27.21;47.15;98726.53;4973814;28;20129;-77
2022/07/27 05:26:22;;;;;;;16.77;3.35;;;;;;;27.29;46.46;98723.38;4956758;28;20490;-77
2022/07/27 05:28:48;;;;;;;9.15;3.17;;;;;;;26.82;47.02;98732.63;4972649;28;20054;-79
2022/07/27 05:31:14;;;;;;;7.18;2.88;;;;;;;26.68;46.16;98736.69;4972616;28;20414;-77
2022/07/27 05:33:39;;;;;;;8.80;2.90;;;;;;;26.15;47.18;98734.94;4972558;28;20050;-79
2022/07/27 05:36:05;;;;;;;7.85;3.25;;;;;;;26.27;47.23;98722.06;4972380;28;20133;-77
2022/07/27 05:38:37;;;;;;;11.23;3.10;;;;;;;26.29;47.27;98736.38;4972221;28;20486;-78
2022/07/27 05:41:05;;;;;;;6.82;2.85;;;;;;;26.50;47.49;98737.69;4972313;28;20441;-77
2022/07/27 05:43:32;;;;;;;4.68;2.60;;;;;;;26.84;46.41;98738.66;4972648;28;20048;-77
2022/07/27 05:45:57;;;;;;;6.68;2.60;;;;;;;26.83;46.43;98737.00;4974484;28;20479;-77
2022/07/27 05:48:24;;;;;;;6.43;2.80;;;;;;;27.07;45.78;98739.66;4956586;28;20521;-79
2022/07/27 05:50:49;;;;;;;3.22;2.80;;;;;;;27.23;45.61;98733.44;4988590;28;20162;-78
2022/07/27 05:53:15;;;;;;;9.60;3.10;;;;;;;27.33;46.03;98739.09;4988787;28;20090;-78
2022/07/27 05:55:41;;;;;;;12.43;3.22;;;;;;;26.84;46.40;98743.31;4977256;28;20495;-78
2022/07/27 05:58:06;;;;;;;7.53;3.25;;;;;;;26.88;46.92;98744.50;4976419;28;20043;-78
2022/07/27 06:00:33;;;;;;;5.32;3.30;;;;;;;26.98;46.06;98730.19;4976259;28;20046;-77
2022/07/27 06:02:58;;;;;;;4.57;2.58;;;;;;;27.25;45.72;98745.00;4960342;28;20049;-79
2022/07/27 06:05:27;;;;;;;4.57;2.90;;;;;;;27.23;45.43;98760.03;4960565;28;20170;-77
2022/07/27 06:07:59;;;;;;;;;;;;;;;27.24;45.15;98748.00;4976833;28;20409;-78
2022/07/27 06:10:29;;;;;;;5.00;2.60;;;;;;;26.76;45.78;98754.69;4977547;28;19972;-77
2022/07/27 06:12:55;;;;;;;7.90;2.72;;;;;;;26.65;46.66;98750.88;4976064;28;20047;-76
2022/07/27 06:15:22;;;;;;;21.05;3.40;;;;;;;26.87;46.47;98749.16;4977174;28;20043;-77
2022/07/27 06:17:51;;;;;;;3.13;2.65;;;;;;;27.15;45.87;98739.31;4976213;28;20039;-77
2022/07/27 06:20:17;;;;;;;7.57;2.75;;;;;;;27.04;45.88;98746.50;4975959;28;20042;-77
2022/07/27 06:22:54;;;;;;;4.32;2.50;;;;;;;27.01;45.76;98755.22;4975920;28;20039;-78
2022/07/27 06:25:21;;;;;;;8.93;2.83;;;;;;;27.12;45.61;98756.28;4976811;28;20042;-78
2022/07/27 06:27:47;;;;;;;5.15;2.60;;;;;;;27.20;45.39;98753.13;4977359;28;20055;-78
2022/07/27 06:30:16;;;;;;;4.90;2.65;;;;;;;27.30;44.54;98750.56;4975808;28;20054;-77
2022/07/27 06:32:42;;;;;;;12.13;2.78;;;;;;;27.20;44.65;98753.13;4959574;28;20058;-77
2022/07/27 06:35:09;;;;;;;4.35;2.78;;;;;;;27.38;44.73;98748.50;4975702;28;20414;-76
2022/07/27 06:37:35;;;;;;;8.15;2.80;;;;;;;27.63;43.87;98740.72;4976749;28;20223;-77
2022/07/27 06:40:03;;;;;;;7.28;2.78;;;;;;;27.73;43.85;98745.56;4975281;28;20046;-77
2022/07/27 06:42:29;;;;;;;8.10;2.60;;;;;;;27.98;43.53;98747.94;4943341;28;20045;-78
2022/07/27 06:44:55;;;;;;;3.90;2.80;;;;;;;28.07;43.16;98735.44;4991700;28;20410;-77
2022/07/27 06:47:21;;;;;;;6.43;2.60;;;;;;;27.93;42.68;98745.09;4975332;28;20405;-77
2022/07/27 06:49:48;;;;;;;9.15;2.72;;;;;;;27.92;43.27;98738.78;4959339;28;20043;-78
2022/07/27 06:52:14;;;;;;;5.68;2.85;;;;;;;27.99;44.06;98749.63;4991514;28;20043;-77
2022/07/27 06:54:39;;;;;;;6.03;3.00;;;;;;;28.11;43.67;98753.09;4991435;28;20074;-77
2022/07/27 06:57:05;;;;;;;4.38;2.70;;;;;;;28.08;44.22;98759.91;4976547;28;20046;-78
2022/07/27 06:59:33;;;;;;;8.00;3.38;;;;;;;28.05;43.91;98737.59;4975703;28;20093;-78
2022/07/27 07:01:59;;;;;;;6.78;2.90;;;;;;;28.17;43.66;98745.75;4991813;28;20511;-78
2022/07/27 07:04:26;;;;;;;5.07;2.83;;;;;;;28.30;43.30;98750.91;4974635;28;20152;-77
2022/07/27 07:06:52;;;;;;;6.90;3.15;;;;;;;28.44;42.81;98746.75;4975402;28;20046;-79
2022/07/27 07:09:18;;;;;;;5.35;2.90;;;;;;;28.59;41.84;98754.38;4975162;28;20486;-79
2022/07/27 07:11:44;;;;;;;2.72;2.50;;;;;;;28.49;42.18;98746.81;4975169;28;20047;-78
2022/07/27 07:14:10;;;;;;;8.30;2.97;;;;;;;28.65;41.65;98736.00;4991448;28;20042;-77
2022/07/27 07:16:36;;;;;;;7.65;3.03;;;;;;;28.47;42.40;98740.75;4974965;28;20108;-77
2022/07/27 07:19:01;;;;;;;8.50;2.72;;;;;;;28.65;42.26;98753.34;4974755;28;20054;-78
2022/07/27 07:21:27;;;;;;;8.20;3.10;;;;;;;28.80;41.96;98745.28;4974508;28;20137;-77
2022/07/27 07:23:53;;;;;;;10.30;3.20;;;;;;;29.01;41.69;98756.59;4942425;28;20050;-77
2022/07/27 07:26:19;;;;;;;7.70;2.90;;;;;;;29.19;41.52;98753.50;4990952;28;20132;-76
2022/07/27 07:28:45;;;;;;;10.35;3.15;;;;;;;29.37;40.79;98751.47;4975695;28;20145;-77
2022/07/27 07:31:10;;;;;;;12.82;3.17;;;;;;;29.39;41.33;98749.28;4974704;28;20530;-77
2022/07/27 07:33:36;;;;;;;9.38;3.22;;;;;;;29.24;40.87;98753.53;4958406;28;20045;-77
2022/07/27 07:36:03;;;;;;;7.20;2.92;;;;;;;29.20;41.44;98748.81;4958734;28;20042;-77
2022/07/27 07:38:28;;;;;;;6.47;3.55;;;;;;;29.44;41.17;98739.16;4975515;28;20057;-77
2022/07/27 07:40:54;;;;;;;6.15;2.97;;;;;;;29.74;41.04;98744.16;4974324;28;20133;-77
2022/07/27 07:43:20;;;;;;;13.52;3.08;;;;;;;29.85;40.12;98749.75;4975482;28;20081;-77
2022/07/27 07:45:46;;;;;;;7.50;3.40;;;;;;;29.60;40.79;98753.09;4958400;28;20446;-79
2022/07/27 07:48:12;;;;;;;7.90;3.03;;;;;;;29.37;41.30;98754.22;4958141;28;20042;-77
2022/07/27 07:50:37;;;;;;;6.90;2.90;;;;;;;29.45;41.12;98751.84;4973873;28;20050;-77
2022/07/27 07:53:03;;;;;;;4.85;2.72;;;;;;;29.88;40.73;98761.06;4975408;28;20050;-77
2022/07/27 07:55:30;;;;;;;5.97;2.80;;;;;;;30.33;39.98;98756.22;4975360;28;20042;-77
2022/07/27 07:57:56;;;;;;;7.82;2.97;;;;;;;30.71;38.62;98747.59;4975178;28;20093;-78
2022/07/27 08:00:23;;;;;;;7.43;3.10;;;;;;;30.85;38.54;98747.97;4957984;28;20046;-78
2022/07/27 08:02:53;;;;;;;6.68;2.90;;;;;;;30.99;38.12;98750.22;4974183;28;20387;-78
2022/07/27 08:05:20;;;;;;;6.95;3.13;;;;;;;31.26;37.80;98750.03;4973938;28;20450;-77
2022/07/27 08:07:47;;;;;;;7.22;3.55;;;;;;;31.38;37.84;98742.38;4973668;28;20138;-76
2022/07/27 08:10:15;;;;;;;8.88;3.35;;;;;;;31.49;37.52;98738.50;4973744;28;20458;-77
2022/07/27 08:12:44;;;;;;;14.18;2.97;;;;;;;31.59;36.89;98738.50;4973689;28;20055;-78
2022/07/27 08:15:11;;;;;;;5.93;3.00;;;;;;;31.16;37.72;98746.13;4973993;28;20430;-77
2022/07/27 08:17:37;;;;;;;8.80;3.38;;;;;;;30.67;38.85;98740.13;4972994;28;20046;-77
2022/07/27 08:20:05;;;;;;;8.15;3.20;;;;;;;30.54;39.11;98746.97;4973415;28;20578;-77
2022/07/27 08:22:31;;;;;;;10.13;3.25;;;;;;;30.85;38.87;98733.34;4974970;28;20047;-77
2022/07/27 08:24:56;;;;;;;4.72;2.70;;;;;;;31.13;37.54;98741.16;4973641;28;20051;-76
2022/07/27 08:27:22;;;;;;;5.45;3.13;;;;;;;31.20;36.58;98738.97;4973444;28;20050;-76
2022/07/27 08:29:48;;;;;;;8.57;3.03;;;;;;;31.34;35.62;98735.72;4957271;28;20383;-76
2022/07/27 08:32:14;;;;;;;6.20;2.67;;;;;;;30.96;35.73;98732.28;4972525;28;20077;-76
2022/07/27 08:34:40;;;;;;;8.18;2.85;;;;;;;30.57;37.18;98735.38;4974733;28;20078;-76
2022/07/27 08:37:06;;;;;;;8.00;2.92;;;;;;;30.72;37.36;98732.69;4973175;28;20054;-77
2022/07/27 08:39:32;;;;;;;4.85;2.90;;;;;;;31.09;36.78;98734.50;4973154;28;20447;-77
2022/07/27 08:42:04;;;;;;;8.73;3.17;;;;;;;31.33;36.55;98732.13;4957190;28;20421;-77
2022/07/27 08:44:32;;;;;;;5.53;2.85;;;;;;;31.39;36.42;98738.50;4989688;28;20054;-84
2022/07/27 08:47:01;;;;;;;6.45;3.22;;;;;;;31.81;36.60;98731.88;4972848;28;20047;-77
2022/07/27 08:49:28;;;;;;;7.38;3.20;;;;;;;32.55;35.37;98724.94;4974385;28;20116;-77
2022/07/27 08:51:54;;;;;;;8.88;3.92;;;;;;;32.51;34.38;98732.97;4972922;28;20055;-77
2022/07/27 08:54:20;;;;;;;4.97;2.83;;;;;;;32.36;34.80;98733.81;4988995;28;20085;-78
2022/07/27 08:56:47;;;;;;;8.15;3.05;;;;;;;32.51;34.84;98734.91;4989357;28;20049;-77
2022/07/27 08:59:13;;;;;;;3.75;2.83;;;;;;;32.03;35.86;98735.22;4973457;28;20042;-78
2022/07/27 09:01:39;;;;;;;4.82;2.65;;;;;;;32.51;35.25;98734.91;4972529;28;20038;-78
2022/07/27 09:04:09;;;;;;;6.15;2.70;;;;;;;32.94;34.54;98721.47;4972823;28;20530;-77
2022/07/27 09:06:49;;;;;;;8.00;3.00;;;;;;;33.06;34.34;98733.91;4957235;28;20049;-77
2022/07/27 09:09:18;;;;;;;5.47;3.15;;;;;;;32.58;35.00;98736.28;4957180;28;20051;-82
2022/07/27 09:12:10;;;;;;;5.03;3.30;;;;;;;32.43;35.18;98721.66;4972890;28;20089;-80
2022/07/27 09:14:38;;;;;;;3.92;2.90;;;;;;;31.97;35.80;98736.38;4973741;28;20046;-77
2022/07/27 09:17:22;;;;;;;4.05;2.80;;;;;;;31.73;36.25;98733.28;4974128;28;20053;-78
2022/07/27 09:20:06;;;;;;;6.07;3.00;;;;;;;31.93;36.45;98729.69;4972639;28;20437;-77
2022/07/27 09:22:40;;;;;;;7.70;2.70;;;;;;;32.85;34.59;98721.22;4972734;28;20400;-77
2022/07/27 09:25:08;;;;;;;5.38;2.70;;;;;;;33.60;33.68;98723.88;4956785;28;20054;-82
2022/07/27 09:27:33;;;;;;;5.88;2.85;;;;;;;34.21;32.71;98719.78;4973010;28;20061;-79
2022/07/27 09:30:02;;;;;;;8.85;2.65;;;;;;;34.73;32.45;98729.22;4973676;28;20054;-78
2022/07/27 09:32:29;;;;;;;5.88;2.70;;;;;;;33.85;31.52;98714.50;4988192;28;20070;-78
2022/07/27 09:34:55;;;;;;;6.80;2.53;;;;;;;33.03;32.95;98720.63;4971418;28;20050;-79
2022/07/27 09:37:26;;;;;;;3.17;2.28;;;;;;;32.52;33.71;98725.50;4972309;28;20043;-78
2022/07/27 09:40:15;;;;;;;4.97;2.67;;;;;;;32.63;34.03;98716.88;4972106;28;20047;-79
2022/07/27 09:42:42;;;;;;;3.45;2.53;;;;;;;32.60;33.96;98714.66;4972186;28;20046;-77
2022/07/27 09:45:32;;;;;;;5.85;2.88;;;;;;;32.86;33.82;98725.63;4972777;28;20058;-79
2022/07/27 09:48:14;;;;;;;7.13;2.67;;;;;;;32.97;33.46;98716.22;4973463;28;20051;-81
2022/07/27 09:50:46;;;;;;;9.05;2.70;;;;;;;33.06;33.64;98708.13;4972801;28;20054;-78
2022/07/27 09:53:22;;;;;;;7.07;2.80;;;;;;;33.65;32.67;98704.44;4972062;28;20421;-78
2022/07/27 09:56:04;;;;;;;12.55;2.90;;;;;;;33.69;32.99;98699.13;4972722;28;20092;-79
2022/07/27 09:58:56;;;;;;;6.85;2.63;;;;;;;34.24;31.90;98699.78;4988626;28;20047;-80
2022/07/27 10:01:25;;;;;;;10.07;2.70;;;;;;;34.59;31.19;98694.97;4955792;28;20082;-78
2022/07/27 10:04:02;;;;;;;3.00;2.30;;;;;;;34.35;31.33;98679.13;4968945;28;20043;-81
2022/07/27 10:06:29;;;;;;;5.25;2.40;;;;;;;34.36;31.53;98694.63;4954591;28;20452;-78
2022/07/27 10:08:56;;;;;;;6.65;2.80;;;;;;;34.10;31.85;98701.56;4969139;28;20047;-78
2022/07/27 10:11:23;;;;;;;4.53;2.20;;;;;;;33.66;31.83;98703.31;4953179;29;20528;-78
2022/07/27 10:13:51;;;;;;;5.70;2.60;;;;;;;33.00;33.25;98699.03;4953052;29;20055;-78
2022/07/27 10:16:20;;;;;;;8.70;2.78;;;;;;;32.83;33.38;98692.97;4952939;28;20043;-79
2022/07/27 10:19:00;;;;;;;5.50;2.55;;;;;;;32.57;33.67;98690.34;4953353;28;20043;-78
2022/07/27 10:21:27;;;;;;;8.50;2.60;;;;;;;32.14;34.27;98695.41;4953901;28;20054;-78
2022/07/27 10:23:57;;;;;;;4.75;2.60;;;;;;;31.88;34.82;98683.56;4988457;28;20475;-78
2022/07/27 10:26:23;;;;;;;9.43;2.92;;;;;;;31.63;35.35;98684.38;4988044;28;20125;-77
2022/07/27 10:29:05;;;;;;;8.48;2.97;;;;;;;31.18;36.18;98691.50;4971852;28;20137;-78
2022/07/27 10:31:39;;;;;;;6.63;2.78;;;;;;;30.81;36.68;98690.84;4988446;28;20054;-78
2022/07/27 10:34:07;;;;;;;12.77;3.40;;;;;;;30.78;36.75;98691.38;4956187;28;20506;-78
2022/07/27 10:36:33;;;;;;;6.57;3.20;;;;;;;30.70;36.79;98692.69;4973396;28;20039;-78
2022/07/27 10:39:04;;;;;;;6.20;3.00;;;;;;;30.61;37.45;98691.53;4956018;28;20054;-78
2022/07/27 10:41:39;;;;;;;3.55;3.13;;;;;;;30.47;37.33;98691.22;4975048;28;20450;-78
2022/07/27 10:44:13;;;;;;;8.38;3.28;;;;;;;30.40;37.54;98685.09;4957585;28;20074;-77
2022/07/27 10:46:54;;;;;;;7.60;3.45;;;;;;;30.22;37.84;98687.22;4976940;28;20051;-78
2022/07/27 10:49:20;;;;;;;12.15;3.17;;;;;;;29.65;39.77;98696.16;4959325;28;20046;-78
2022/07/27 10:51:46;;;;;;;6.40;4.13;;;;;;;29.24;41.22;98703.16;4976479;28;20379;-79
2022/07/27 10:54:24;;;;;;;9.70;3.80;;;;;;;28.96;42.31;98720.72;4959182;28;20053;-78
2022/07/27 10:56:51;;;;;;;18.08;4.32;;;;;;;28.42;43.62;98702.16;4991713;28;20035;-77
2022/07/27 10:59:38;;;;;;;17.45;3.80;;;;;;;27.33;45.94;98725.38;4991387;28;20043;-75
2022/07/27 11:02:09;;;;;;;12.43;3.50;;;;;;;26.59;47.42;98738.13;4976344;28;20532;-75
2022/07/27 11:04:44;;;;;;;9.00;3.80;;;;;;;26.32;48.05;98744.09;4974750;28;20058;-76
2022/07/27 11:07:10;;;;;;;20.80;3.50;;;;;;;26.32;48.66;98733.13;4991334;28;20043;-83
2022/07/27 11:09:38;;;;;;;10.48;4.03;;;;;;;26.15;50.90;98735.78;4959153;28;20043;-75
2022/07/27 11:12:05;;;;;;;12.43;4.20;;;;;;;26.04;51.71;98733.03;4976007;28;20050;-75
2022/07/27 11:14:53;;;;;;;6.93;4.30;;;;;;;26.31;51.34;98741.59;4975999;28;20051;-75
2022/07/27 11:17:21;;;;;;;5.27;3.90;;;;;;;26.48;51.21;98734.38;4974871;28;20094;-75
2022/07/27 11:19:55;;;;;;;6.55;3.75;;;;;;;26.66;50.63;98740.75;4974661;28;20337;-76
2022/07/27 11:22:36;;;;;;;8.18;4.50;;;;;;;27.53;49.20;98740.53;4975758;28;20514;-77
2022/07/27 11:25:03;;;;;;;12.63;6.15;;;;;;;28.90;46.86;98749.28;4974765;28;20034;-76
2022/07/27 11:27:29;;;;;;;17.27;4.00;;;;;;;29.68;44.19;98750.72;4974377;28;20112;-75
2022/07/27 11:29:56;;;;;;;22.02;4.45;;;;;;;30.88;43.20;98746.56;4974825;28;20046;-75
2022/07/27 11:32:22;;;;;;;13.10;4.55;;;;;;;32.24;40.85;98735.22;4974826;28;20050;-75
2022/07/27 11:34:49;;;;;;;5.68;4.10;;;;;;;32.79;37.27;98744.50;4990740;28;20064;-75
2022/07/27 11:37:22;;;;;;;7.35;4.05;;;;;;;32.04;37.27;98736.06;4975427;28;20051;-75